Time;durP1;ratioP1;P1;durP2;ratioP2;P2;SDS_P1;SDS_P2;PMS_P1;PMS_P2;Temp;Humidity;BMP_temperature;BMP_pressure;BME280_temperature;BME280_humidity;BME280_pressure;Samples;Min_cycle;Max_cycle;Signal;HPM_P1;HPM_P2
2021/11/20 00:00:40;;;;;;;;;;;;;;;8.31;100.00;98262.64;1806868;79;20106;-64
2021/11/20 00:03:08;;;;;;;;;;;;;;;8.33;100.00;98261.05;1797595;79;20110;-64
2021/11/20 00:05:39;;;;;;;;;;;;;;;8.36;100.00;98249.26;1802667;78;20210;-64
2021/11/20 00:08:07;;;;;;;;;;;;;;;8.40;100.00;98260.77;1794168;79;20139;-63
2021/11/20 00:10:36;;;;;;;;;;;;;;;8.44;100.00;98263.97;1804584;79;20149;-64
2021/11/20 00:13:07;;;;;;;;;;;;;;;8.48;100.00;98270.39;1802803;79;20134;-64
2021/11/20 00:15:33;;;;;;;;;;;;;;;8.51;100.00;98265.03;1788959;79;20122;-63
2021/11/20 00:18:00;;;;;;;;;;;;;;;8.51;100.00;98253.80;1798293;78;20083;-63
2021/11/20 00:20:28;;;;;;;;;;;;;;;8.56;100.00;98261.00;1797429;78;21115;-63
2021/11/20 00:22:57;;;;;;;;;;;;;;;8.58;100.00;98254.31;1798235;79;20138;-63
2021/11/20 00:25:28;;;;;;;;;;;;;;;8.62;100.00;98234.49;1789132;79;20143;-64
2021/11/20 00:27:58;;;;;;;;;;;;;;;8.61;100.00;98236.92;1798323;79;20106;-63
2021/11/20 00:30:29;;;;;;;;;;;;;;;8.62;100.00;98236.38;1790033;79;20169;-64
2021/11/20 00:33:02;;;;;;;;;;;;;;;8.60;100.00;98228.64;1798497;79;21102;-63
2021/11/20 00:35:32;;;;;;;;;;;;;;;8.61;100.00;98227.55;1797943;79;20066;-63
2021/11/20 00:37:58;;;;;;;;;;;;;;;8.61;100.00;98226.77;1806446;78;20415;-64
2021/11/20 00:40:37;;;;;;;;;;;;;;;8.61;100.00;98225.42;1794555;79;20154;-63
2021/11/20 00:43:05;;;;;;;;;;;;;;;8.62;100.00;98209.08;1793821;79;20094;-64
2021/11/20 00:45:31;;;;;;;;;;;;;;;8.61;100.00;98201.34;1797107;79;21786;-63
2021/11/20 00:47:59;;;;;;;;;;;;;;;8.63;100.00;98181.83;1795305;79;20471;-62
2021/11/20 00:50:25;;;;;;;;;;;;;;;8.66;100.00;98199.45;1802990;79;20491;-61
2021/11/20 00:52:52;;;;;;;;;;;;;;;8.68;100.00;98201.31;1789228;79;20142;-62
2021/11/20 00:55:23;;;;;;;;;;;;;;;8.70;100.00;98182.33;1790586;79;20086;-62
2021/11/20 00:57:51;;;;;;;;;;;;;;;8.70;100.00;98187.68;1793386;79;21099;-62
2021/11/20 01:00:21;;;;;;;;;;;;;;;8.70;100.00;98190.35;1794989;79;20416;-64
2021/11/20 01:02:47;;;;;;;;;;;;;;;8.72;100.00;98172.95;1794026;79;20139;-64
2021/11/20 01:05:14;;;;;;;;;;;;;;;8.74;100.00;98174.00;1792839;77;20438;-63
2021/11/20 01:07:42;;;;;;;;;;;;;;;8.77;100.00;98171.59;1803629;79;20127;-63
2021/11/20 01:10:11;;;;;;;;;;;;;;;8.76;100.00;98170.52;1801161;79;21811;-63
2021/11/20 01:12:38;;;;;;;;;;;;;;;8.74;100.00;98155.27;1800989;79;20086;-64
2021/11/20 01:15:08;;;;;;;;;;;;;;;8.73;100.00;98150.46;1805483;79;20099;-63
2021/11/20 01:17:37;;;;;;;;;;;;;;;8.75;100.00;98163.03;1794388;79;20150;-63
2021/11/20 01:20:06;;;;;;;;;;;;;;;8.75;100.00;98159.02;1792760;79;20458;-62
2021/11/20 01:22:46;;;;;;;;;;;;;;;8.74;100.00;98166.77;1793369;79;21103;-63
2021/11/20 01:25:17;;;;;;;;;;;;;;;8.76;100.00;98171.85;1792996;79;20433;-63
2021/11/20 01:27:45;;;;;;;;;;;;;;;8.78;100.00;98161.68;1793585;79;20406;-64
2021/11/20 01:30:30;;;;;;;;;;;;;;;8.78;100.00;98148.30;1731789;81;20140;-62
2021/11/20 01:32:58;;;;;;;;;;;;;;;8.80;100.00;98154.97;1743305;82;20089;-64
2021/11/20 01:35:25;;;;;;;;;;;;;;;8.78;100.00;98150.44;1734929;82;21222;-63
2021/11/20 01:37:53;;;;;;;;;;;;;;;8.80;100.00;98136.25;1737844;81;20643;-63
2021/11/20 01:40:21;;;;;;;;;;;;;;;8.80;100.00;98130.90;1739006;81;20108;-64
2021/11/20 01:42:48;;;;;;;;;;;;;;;8.80;100.00;98129.56;1736798;81;20089;-64
2021/11/20 01:45:31;;;;;;;;;;;;;;;8.80;100.00;98126.88;1732316;81;20097;-63
2021/11/20 01:48:25;;;;;;;;;;;;;;;8.82;100.00;98116.43;1737553;81;21802;-64
2021/11/20 01:50:59;;;;;;;;;;;;;;;8.83;100.00;98121.52;1743397;80;20092;-65
2021/11/20 01:53:38;;;;;;;;;;;;;;;8.86;100.00;98111.59;1741162;81;20144;-64
2021/11/20 01:56:20;;;;;;;;;;;;;;;8.86;100.00;98100.89;1737751;81;20482;-63
2021/11/20 01:58:58;;;;;;;;;;;;;;;8.89;100.00;98107.56;1733365;81;20452;-64
2021/11/20 02:01:44;;;;;;;;;;;;;;;8.89;100.00;98110.23;1725033;81;21132;-63
2021/11/20 02:04:34;;;;;;;;;;;;;;;8.91;100.00;98112.89;1745751;78;20135;-63
2021/11/20 02:07:21;;;;;;;;;;;;;;;8.93;100.00;98117.98;1793036;78;20094;-63
2021/11/20 02:09:58;;;;;;;;;;;;;;;8.94;100.00;98119.56;1794378;79;20135;-63
2021/11/20 02:12:36;;;;;;;;;;;;;;;8.94;100.00;98111.53;1784959;79;20143;-62
2021/11/20 02:15:07;;;;;;;;;;;;;;;8.97;100.00;98112.34;1784489;79;21110;-63
2021/11/20 02:17:37;;;;;;;;;;;;;;;8.97;100.00;98106.98;1793360;78;20436;-63
2021/11/20 02:20:18;;;;;;;;;;;;;;;8.96;100.00;98106.16;1784478;79;20158;-63
2021/11/20 02:22:45;;;;;;;;;;;;;;;8.97;100.00;98101.64;1793960;79;20141;-62
2021/11/20 02:25:13;;;;;;;;;;;;;;;8.95;100.00;98110.48;1785320;79;20238;-64
2021/11/20 02:28:00;;;;;;;;;;;;;;;8.92;100.00;98093.64;1793726;79;21122;-64
2021/11/20 02:30:29;;;;;;;;;;;;;;;8.88;100.00;98102.75;1795631;79;20091;-64
2021/11/20 02:32:59;;;;;;;;;;;;;;;8.87;100.00;98101.16;1794021;79;20444;-63
2021/11/20 02:35:33;;;;;;;;;;;;;;;8.85;100.00;98094.50;1786782;79;20158;-63
2021/11/20 02:38:01;;;;;;;;;;;;;;;8.85;100.00;98101.97;1800242;78;20074;-64
2021/11/20 02:40:27;;;;;;;;;;;;;;;8.86;100.00;98095.53;1772526;79;21792;-64
2021/11/20 02:42:55;;;;;;;;;;;;;;;8.90;100.00;98093.13;1793440;79;20134;-63
2021/11/20 02:45:29;;;;;;;;;;;;;;;8.94;100.00;98094.14;1794833;79;20142;-64
2021/11/20 02:47:56;;;;;;;;;;;;;;;8.99;100.00;98098.94;1798146;79;20102;-64
2021/11/20 02:50:37;;;;;;;;;;;;;;;9.01;100.00;98087.94;1796398;79;20416;-64
2021/11/20 02:53:06;;;;;;;;;;;;;;;9.03;100.00;98092.48;1798405;79;21692;-64
2021/11/20 02:55:43;;;;;;;;;;;;;;;9.04;100.00;98099.45;1796698;79;20105;-64
2021/11/20 02:58:11;;;;;;;;;;;;;;;9.10;100.00;98102.87;1761452;79;20103;-64
2021/11/20 03:00:39;;;;;;;;;;;;;;;9.09;100.00;98095.91;1792011;79;20131;-63
2021/11/20 03:03:06;;;;;;;;;;;;;;;9.15;100.00;98112.20;1793991;79;20107;-63
2021/11/20 03:05:33;;;;;;;;;;;;;;;9.16;100.00;98119.97;1798648;79;21942;-64
2021/11/20 03:08:00;;;;;;;;;;;;;;;9.15;100.00;98118.35;1798586;79;20074;-62
2021/11/20 03:10:27;;;;;;;;;;;;;;;9.12;100.00;98124.27;1794336;79;20468;-63
2021/11/20 03:12:54;;;;;;;;;;;;;;;9.10;100.00;98119.73;1800992;79;20416;-63
2021/11/20 03:15:23;;;;;;;;;;;;;;;9.11;100.00;98126.67;1796132;79;20135;-65
2021/11/20 03:17:50;;;;;;;;;;;;;;;9.11;100.00;98106.59;1794969;79;21101;-65
2021/11/20 03:20:17;;;;;;;;;;;;;;;9.13;100.00;98125.06;1791851;79;20086;-65
2021/11/20 03:22:51;;;;;;;;;;;;;;;9.14;100.00;98121.33;1791434;79;20107;-65
2021/11/20 03:25:17;;;;;;;;;;;;;;;9.17;100.00;98123.44;1793443;79;20392;-64
2021/11/20 03:27:44;;;;;;;;;;;;;;;9.19;100.00;98119.95;1800173;79;20159;-65
2021/11/20 03:30:13;;;;;;;;;;;;;;;9.21;100.00;98122.60;1796612;79;21105;-66
2021/11/20 03:32:41;;;;;;;;;;;;;;;9.27;100.00;98109.17;1760040;79;20151;-65
2021/11/20 03:35:09;;;;;;;;;;;;;;;9.32;100.00;98119.84;1796414;79;20139;-64
2021/11/20 03:37:36;;;;;;;;;;;;;;;9.38;100.00;98120.04;1799935;79;20141;-64
2021/11/20 03:40:05;;;;;;;;;;;;;;;9.42;100.00;98128.58;1794605;79;20129;-64
2021/11/20 03:42:32;;;;;;;;;;;;;;;9.44;100.00;98126.42;1789943;79;21125;-63
2021/11/20 03:44:59;;;;;;;;;;;;;;;9.43;100.00;98116.80;1791313;79;20651;-63
2021/11/20 03:47:26;;;;;;;;;;;;;;;9.41;100.00;98115.48;1795896;79;20149;-62
2021/11/20 03:49:55;;;;;;;;;;;;;;;9.38;100.00;98120.04;1785636;79;20115;-63
2021/11/20 03:52:21;;;;;;;;;;;;;;;9.32;100.00;98110.47;1787897;79;20178;-63
2021/11/20 03:54:50;;;;;;;;;;;;;;;9.31;100.00;98125.74;1794305;79;22168;-64
2021/11/20 03:57:18;;;;;;;;;;;;;;;9.29;100.00;98133.25;1789067;79;20091;-65
2021/11/20 03:59:44;;;;;;;;;;;;;;;9.26;100.00;98125.78;1794517;79;20448;-65
2021/11/20 04:02:11;;;;;;;;;;;;;;;9.20;100.00;98136.25;1787580;79;20087;-64
2021/11/20 04:04:38;;;;;;;;;;;;;;;9.18;100.00;98101.72;1789792;79;20480;-63
2021/11/20 04:07:06;;;;;;;;;;;;;;;9.19;100.00;98118.06;1789827;79;21017;-63
2021/11/20 04:09:33;;;;;;;;;;;;;;;9.22;100.00;98122.05;1825512;78;20114;-63
2021/11/20 04:12:02;;;;;;;;;;;;;;;9.25;100.00;98130.06;1797953;79;20074;-63
2021/11/20 04:14:28;;;;;;;;;;;;;;;9.28;100.00;98119.59;1784615;79;20075;-64
2021/11/20 04:16:55;;;;;;;;;;;;;;;9.37;100.00;98143.34;1799130;79;20126;-63
2021/11/20 04:19:23;;;;;;;;;;;;;;;9.37;100.00;98139.88;1797474;79;21122;-64
2021/11/20 04:21:50;;;;;;;;;;;;;;;9.33;100.00;98119.54;1797711;79;20400;-65
2021/11/20 04:24:18;;;;;;;;;;;;;;;9.32;100.00;98141.26;1792194;79;20090;-65
2021/11/20 04:26:52;;;;;;;;;;;;;;;9.33;100.00;98132.13;1798028;79;20138;-64
2021/11/20 04:29:20;;;;;;;;;;;;;;;9.30;100.00;98146.88;1797158;79;20106;-64
2021/11/20 04:31:47;;;;;;;;;;;;;;;9.30;100.00;98140.19;1804471;79;21076;-65
2021/11/20 04:34:14;;;;;;;;;;;;;;;9.26;100.00;98141.02;1806254;79;20098;-64
2021/11/20 04:36:42;;;;;;;;;;;;;;;9.25;100.00;98143.45;1807002;78;20137;-67
2021/11/20 04:39:09;;;;;;;;;;;;;;;9.26;100.00;98156.57;1807942;79;20105;-65
2021/11/20 04:41:36;;;;;;;;;;;;;;;9.27;100.00;98145.31;1809921;79;20158;-65
2021/11/20 04:44:03;;;;;;;;;;;;;;;9.27;100.00;98140.75;1809835;79;21087;-66
2021/11/20 04:46:30;;;;;;;;;;;;;;;9.24;100.00;98135.97;1803473;79;20147;-67
2021/11/20 04:48:57;;;;;;;;;;;;;;;9.25;100.00;98149.59;1792657;79;20115;-67
2021/11/20 04:51:23;;;;;;;;;;;;;;;9.27;100.00;98152.80;1795881;79;20127;-67
2021/11/20 04:53:50;;;;;;;;;;;;;;;9.31;100.00;98143.14;1792981;79;20163;-66
2021/11/20 04:56:18;;;;;;;;;;;;;;;9.34;100.00;98138.56;1795108;78;21092;-66
2021/11/20 04:58:45;;;;;;;;;;;;;;;9.32;100.00;98125.98;1792680;79;20472;-66
2021/11/20 05:01:12;;;;;;;;;;;;;;;9.34;100.00;98127.05;1798136;79;20467;-66
2021/11/20 05:03:42;;;;;;;;;;;;;;;9.30;100.00;98139.39;1806353;78;20073;-67
2021/11/20 05:06:09;;;;;;;;;;;;;;;9.34;100.00;98128.39;1801893;79;20110;-66
2021/11/20 05:08:37;;;;;;;;;;;;;;;9.36;100.00;98144.44;1792088;79;21840;-66
2021/11/20 05:11:06;;;;;;;;;;;;;;;9.39;100.00;98148.44;1801214;79;20149;-66
2021/11/20 05:13:42;;;;;;;;;;;;;;;9.38;100.00;98145.48;1791050;79;20131;-66
2021/11/20 05:16:10;;;;;;;;;;;;;;;9.34;100.00;98147.14;1798606;79;20074;-65
2021/11/20 05:18:37;;;;;;;;;;;;;;;9.32;100.00;98161.34;1795829;79;20496;-63
2021/11/20 05:21:09;;;;;;;;;;;;;;;9.31;100.00;98148.50;1792336;79;21110;-63
2021/11/20 05:23:36;;;;;;;;;;;;;;;9.31;100.00;98163.74;1802703;78;20465;-65
2021/11/20 05:26:05;;;;;;;;;;;;;;;9.31;100.00;98166.42;1792818;79;20160;-65
2021/11/20 05:28:31;;;;;;;;;;;;;;;9.32;100.00;98168.83;1791980;79;20107;-66
2021/11/20 05:31:00;;;;;;;;;;;;;;;9.36;100.00;98175.78;1792036;79;20459;-65
2021/11/20 05:33:35;;;;;;;;;;;;;;;9.36;100.00;98181.14;1799353;78;21654;-66
2021/11/20 05:36:04;;;;;;;;;;;;;;;9.37;100.00;98188.88;1797701;79;20102;-65
2021/11/20 05:38:32;;;;;;;;;;;;;;;9.36;100.00;98192.64;1776072;79;20474;-64
2021/11/20 05:40:59;;;;;;;;;;;;;;;9.35;100.00;98204.95;1794380;79;20153;-64
2021/11/20 05:43:28;;;;;;;;;;;;;;;9.40;100.00;98208.94;1792742;79;20154;-64
2021/11/20 05:46:00;;;;;;;;;;;;;;;9.43;100.00;98192.30;1794559;79;21009;-65
2021/11/20 05:48:26;;;;;;;;;;;;;;;9.47;100.00;98193.36;1793420;78;20110;-65
2021/11/20 05:50:53;;;;;;;;;;;;;;;9.48;100.00;98198.16;1794886;79;20472;-65
2021/11/20 05:53:21;;;;;;;;;;;;;;;9.53;100.00;98198.12;1792414;79;20188;-65
2021/11/20 05:55:50;;;;;;;;;;;;;;;9.59;100.00;98211.20;1794971;79;20106;-66
2021/11/20 05:58:17;;;;;;;;;;;;;;;9.58;100.00;98201.58;1788995;79;21069;-65
2021/11/20 06:00:47;;;;;;;;;;;;;;;9.63;100.00;98223.52;1794682;79;20408;-66
2021/11/20 06:03:14;;;;;;;;;;;;;;;9.64;100.00;98231.26;1794332;79;20422;-65
2021/11/20 06:05:54;;;;;;;;;;;;;;;9.61;100.00;98238.52;1753401;81;20080;-66
2021/11/20 06:08:21;;;;;;;;;;;;;;;9.61;100.00;98233.16;1723228;83;20124;-67
2021/11/20 06:10:50;;;;;;;;;;;;;;;9.58;100.00;98228.38;1725001;83;21159;-66
2021/11/20 06:13:17;;;;;;;;;;;;;;;9.55;100.00;98240.96;1734402;81;20398;-66
2021/11/20 06:15:53;;;;;;;;;;;;;;;9.52;100.00;98234.83;1724994;81;20178;-65
2021/11/20 06:18:20;;;;;;;;;;;;;;;9.51;100.00;98239.94;1743091;81;20113;-65
2021/11/20 06:20:47;;;;;;;;;;;;;;;9.52;100.00;98237.51;1722375;82;20165;-64
2021/11/20 06:23:16;;;;;;;;;;;;;;;9.51;100.00;98240.48;1726412;82;21174;-65
2021/11/20 06:25:43;;;;;;;;;;;;;;;9.53;100.00;98235.11;1723660;81;20171;-66
2021/11/20 06:28:09;;;;;;;;;;;;;;;9.51;100.00;98239.14;1729792;81;20665;-65
2021/11/20 06:30:36;;;;;;;;;;;;;;;9.53;100.00;98232.95;1728513;82;20149;-64
2021/11/20 06:33:04;;;;;;;;;;;;;;;9.53;100.00;98226.25;1729556;81;20138;-66
2021/11/20 06:35:49;;;;;;;;;;;;;;;9.51;100.00;98242.62;1727588;81;21899;-64
2021/11/20 06:38:20;;;;;;;;;;;;;;;9.39;100.00;98233.59;1728557;82;20166;-65
2021/11/20 06:40:48;;;;;;;;;;;;;;;9.40;100.00;98232.49;1722986;82;20163;-64
2021/11/20 06:43:15;;;;;;;;;;;;;;;9.49;100.00;98238.08;1720545;83;20520;-65
2021/11/20 06:45:44;;;;;;;;;;;;;;;9.42;100.00;98236.25;1746551;82;20527;-63
2021/11/20 06:48:11;;;;;;;;;;;;;;;9.82;100.00;98239.70;1723405;81;21109;-64
2021/11/20 06:50:38;;;;;;;;;;;;;;;10.18;100.00;98245.55;1726581;82;20490;-64
2021/11/20 06:53:12;;;;;;;;;;;;;;;10.30;100.00;98242.52;1721789;81;20146;-64
2021/11/20 06:55:55;;;;;;;;;;;;;;;10.39;100.00;98251.55;1734980;80;20425;-65
2021/11/20 07:01:20;;;;;;;;;;;;;;;10.52;100.00;98239.34;1737040;82;21076;-65
2021/11/20 07:03:58;;;;;;;;;;;;;;;10.26;100.00;98242.27;1735014;82;20107;-66
2021/11/20 07:06:31;;;;;;;;;;;;;;;10.33;100.00;98244.62;1740980;82;20141;-66
2021/11/20 07:08:58;;;;;;;;;;;;;;;10.43;100.00;98238.36;1740325;82;20204;-66
2021/11/20 07:11:26;;;;;;;;;;;;;;;10.56;100.00;98227.48;1735618;82;20550;-67
2021/11/20 07:13:53;;;;;;;;;;;;;;;10.68;100.00;98245.31;1735737;82;21113;-64
2021/11/20 07:16:22;;;;;;;;;;;;;;;10.93;100.00;98243.69;1741538;80;20162;-67
2021/11/20 07:18:49;;;;;;;;;;;;;;;10.89;100.00;98268.16;1733580;82;20396;-67
2021/11/20 07:21:34;;;;;;;;;;;;;;;10.96;100.00;98265.13;1746475;82;20145;-67
2021/11/20 07:24:06;;;;;;;;;;;;;;;11.05;100.00;98263.93;1745481;81;20204;-67
2021/11/20 07:26:33;;;;;;;;;;;;;;;11.07;100.00;98261.76;1744936;80;21176;-67
2021/11/20 07:29:00;;;;;;;;;;;;;;;11.20;100.00;98271.81;1745283;82;20097;-66
2021/11/20 07:31:28;;;;;;;;;;;;;;;11.04;100.00;98257.77;1743619;82;20458;-67
2021/11/20 07:33:55;;;;;;;;;;;;;;;10.89;100.00;98268.16;1747798;82;20137;-67
2021/11/20 07:36:21;;;;;;;;;;;;;;;10.88;100.00;98257.72;1737661;80;20189;-68
2021/11/20 07:38:55;;;;;;;;;;;;;;;11.12;100.00;98241.55;1734427;82;21058;-66
2021/11/20 07:41:24;;;;;;;;;;;;;;;11.29;100.00;98280.00;1722894;80;20176;-67
2021/11/20 07:43:52;;;;;;;;;;;;;;;11.35;100.00;98272.14;1706699;83;20172;-66
2021/11/20 07:46:22;;;;;;;;;;;;;;;10.94;100.00;98288.77;1710584;82;20083;-68
2021/11/20 07:48:51;;;;;;;;;;;;;;;10.71;100.00;98279.66;1709518;83;20109;-68
2021/11/20 07:51:18;;;;;;;;;;;;;;;10.88;100.00;98275.96;1711989;83;21058;-67
2021/11/20 07:53:47;;;;;;;;;;;;;;;10.90;100.00;98272.45;1697142;83;20130;-68
2021/11/20 07:56:16;;;;;;;;;;;;;;;10.83;100.00;98291.34;1701023;83;20181;-68
2021/11/20 07:58:42;;;;;;;;;;;;;;;10.64;100.00;98277.30;1709804;83;20793;-67
2021/11/20 08:01:10;;;;;;;;;;;;;;;10.66;100.00;98277.03;1721479;83;20398;-68
2021/11/20 08:03:38;;;;;;;;;;;;;;;10.79;100.00;98276.88;1720599;83;21106;-67
2021/11/20 08:06:23;;;;;;;;;;;;;;;11.13;100.00;98297.67;1749489;81;20149;-67
2021/11/20 08:09:10;;;;;;;;;;;;;;;11.10;100.00;98296.91;1743728;82;20452;-66
2021/11/20 08:11:48;;;;;;;;;;;;;;;11.20;100.00;98295.98;1734678;82;20143;-67
2021/11/20 08:14:19;;;;;;;;;;;;;;;11.12;100.00;98279.15;1734906;82;20199;-66
2021/11/20 08:16:47;;;;;;;;;;;;;;;10.90;100.00;98306.02;1727223;82;21092;-67
2021/11/20 08:19:29;;;;;;;;;;;;;;;10.70;100.00;98302.19;1733625;82;20107;-66
2021/11/20 08:22:13;;;;;;;;;;;;;;;10.79;100.00;98303.72;1734826;82;20095;-67
2021/11/20 08:24:40;;;;;;;;;;;;;;;10.63;100.00;98308.44;1742446;82;20156;-68
2021/11/20 08:27:09;;;;;;;;;;;;;;;10.90;100.00;98306.02;1743999;81;20471;-67
2021/11/20 08:29:54;;;;;;;;;;;;;;;10.92;100.00;98307.84;1744263;82;21776;-68
2021/11/20 08:32:22;;;;;;;;;;;;;;;10.65;100.00;98292.30;1744018;82;20416;-67
2021/11/20 08:35:00;;;;;;;;;;;;;;;10.57;100.00;98308.24;1741115;81;20106;-67
2021/11/20 08:37:30;;;;;;;;;;;;;;;10.71;100.00;98312.65;1736343;82;20430;-68
2021/11/20 08:40:01;;;;;;;;;;;;;;;10.63;100.00;98302.55;1743801;82;20110;-68
2021/11/20 08:42:31;;;;;;;;;;;;;;;10.57;100.00;98313.06;1744654;81;21114;-67
2021/11/20 08:45:05;;;;;;;;;;;;;;;10.71;100.00;98306.48;1745155;82;20122;-67
2021/11/20 08:47:35;;;;;;;;;;;;;;;10.85;100.00;98298.53;1743254;82;20164;-67
2021/11/20 08:50:03;;;;;;;;;;;;;;;10.73;100.00;98321.22;1744966;81;20142;-67
2021/11/20 08:52:31;;;;;;;;;;;;;;;10.62;100.00;98287.52;1744942;81;20097;-66
2021/11/20 08:54:58;;;;;;;;;;;;;;;10.60;100.00;98276.27;1744920;81;21047;-67
2021/11/20 08:57:26;;;;;;;;;;;;;;;10.60;100.00;98317.06;1773895;80;20140;-67
2021/11/20 08:59:54;;;;;;;;;;;;;;;10.58;100.00;98328.06;1727006;82;20082;-67
2021/11/20 09:02:26;;;;;;;;;;;;;;;10.58;100.00;98332.63;1717457;82;20481;-64
2021/11/20 09:05:11;;;;;;;;;;;;;;;10.53;100.00;98320.61;1767231;79;20402;-66
2021/11/20 09:07:48;;;;;;;;;;;;;;;10.42;100.00;98323.40;1730131;81;21181;-68
2021/11/20 09:10:29;;;;;;;;;;;;;;;10.38;100.00;98305.47;1726480;81;20118;-67
2021/11/20 09:13:06;;;;;;;;;;;;;;;10.40;100.00;98317.52;1745797;80;20113;-69
2021/11/20 09:15:40;;;;;;;;;;;;;;;10.63;100.00;98337.95;1756409;81;20494;-68
2021/11/20 09:18:15;;;;;;;;;;;;;;;10.93;99.70;98343.02;1731601;81;20090;-68
2021/11/20 09:20:43;;;;;;;;;;;;;;;11.36;97.08;98324.22;1737932;81;21107;-68
2021/11/20 09:23:11;;;;;;;;;;;;;;;11.14;98.01;98336.85;1743607;81;20158;-68
2021/11/20 09:25:40;;;;;;;;;;;;;;;11.10;100.00;98334.50;1757773;80;20086;-67
2021/11/20 09:28:08;;;;;;;;;;;;;;;11.16;100.00;98350.00;1760664;79;20132;-69
2021/11/20 09:30:37;;;;;;;;;;;;;;;10.90;97.36;98313.23;1760447;80;20141;-68
2021/11/20 09:33:04;;;;;;;;;;;;;;;10.88;99.81;98343.62;1763696;80;21708;-65
2021/11/20 09:35:35;;;;;;;;;;;;;;;10.86;100.00;98321.08;1748979;80;20147;-66
2021/11/20 09:38:04;;;;;;;;;;;;;;;10.75;99.83;98330.31;1742775;81;20451;-64
2021/11/20 09:40:32;;;;;;;;;;;;;;;10.81;99.90;98338.58;1739061;81;20149;-64
2021/11/20 09:43:01;;;;;;;;;;;;;;;10.85;98.51;98320.01;1735846;80;20106;-64
2021/11/20 09:45:29;;;;;;;;;;;;;;;10.88;97.50;98318.91;1730294;82;23379;-64
2021/11/20 09:48:13;;;;;;;;;;;;;;;10.78;96.23;98326.26;1734574;82;20122;-67
2021/11/20 09:50:44;;;;;;;;;;;;;;;10.89;89.80;98335.81;1733855;81;20490;-64
2021/11/20 09:53:11;;;;;;;;;;;;;;;11.10;88.39;98357.33;1725735;82;20095;-65
2021/11/20 09:55:46;;;;;;;;;;;;;;;11.22;85.51;98346.19;1723011;82;20126;-65
2021/11/20 09:58:19;;;;;;;;;;;;;;;11.26;82.00;98345.05;1727793;82;21113;-67
2021/11/20 10:01:19;;;;;;;;;;;;;;;11.55;77.10;98336.89;1730000;82;20149;-64
2021/11/20 10:04:05;;;;;;;;;;;;;;;11.51;77.18;98351.98;1745731;80;20123;-65
2021/11/20 10:06:41;;;;;;;;;;;;;;;11.36;80.25;98357.01;1743379;80;20161;-65
2021/11/20 10:09:30;;;;;;;;;;;;;;;11.22;81.40;98369.02;1745781;81;20138;-64
2021/11/20 10:12:08;;;;;;;;;;;;;;;11.11;84.98;98370.20;1743044;81;22127;-62
2021/11/20 10:14:44;;;;;;;;;;;;;;;11.00;86.42;98356.11;1749505;80;20119;-64
2021/11/20 10:17:29;;;;;;;;;;;;;;;10.99;87.41;98360.41;1744475;81;20104;-64
2021/11/20 10:20:00;;;;;;;;;;;;;;;10.85;87.57;98376.38;1739828;81;20435;-64
2021/11/20 10:22:35;;;;;;;;;;;;;;;10.77;90.99;98375.66;1731557;80;20178;-63
2021/11/20 10:25:23;;;;;;;;;;;;;;;10.64;90.87;98342.25;1733789;81;21104;-66
2021/11/20 10:28:11;;;;;;;;;;;;;;;10.85;91.82;98367.81;1728783;82;20099;-67
2021/11/20 10:30:42;;;;;;;;;;;;;;;10.88;89.62;98353.81;1736569;82;20126;-68
2021/11/20 10:33:24;;;;;;;;;;;;;;;11.11;81.02;98383.08;1721465;82;20417;-68
2021/11/20 10:36:21;;;;;;;;;;;;;;;11.27;79.34;98384.25;1723092;82;20115;-66
2021/11/20 10:38:54;;;;;;;;;;;;;;;10.96;77.37;98392.66;1706844;81;21737;-67
2021/11/20 10:41:28;;;;;;;;;;;;;;;11.08;78.69;98398.98;1711952;82;20100;-66
2021/11/20 10:43:57;;;;;;;;;;;;;;;10.86;76.27;98376.11;1713608;82;20114;-64
2021/11/20 10:46:30;;;;;;;;;;;;;;;10.83;76.80;98389.31;1711123;83;20438;-64
2021/11/20 11:57:04;;;;;;;;;;;;;;;10.60;76.62;98424.39;1804312;76;20105;-69
2021/11/20 11:59:41;;;;;;;;;;;;;;;10.96;71.61;98432.13;1792478;79;20498;-69
2021/11/20 12:02:19;;;;;;;;;;;;;;;10.77;69.47;98434.17;1790695;78;20157;-68
2021/11/20 12:04:49;;;;;;;;;;;;;;;10.65;71.74;98439.10;1795204;78;21123;-71
2021/11/20 12:07:48;;;;;;;;;;;;;;;10.65;70.97;98456.00;1779966;80;20163;-68
2021/11/20 12:10:25;;;;;;;;;;;;;;;10.56;71.62;98450.17;1786989;79;20131;-69
2021/11/20 12:13:10;;;;;;;;;;;;;;;10.26;73.42;98446.08;1791042;79;20276;-69
2021/11/20 12:15:43;;;;;;;;;;;;;;;10.15;72.63;98451.23;1789564;79;20115;-70
2021/11/20 12:18:19;;;;;;;;;;;;;;;10.20;69.69;98423.05;1784390;79;21096;-69
2021/11/20 12:20:56;;;;;;;;;;;;;;;10.44;67.96;98412.99;1795027;79;20223;-69
2021/11/20 12:23:53;;;;;;;;;;;;;;;10.60;69.49;98472.69;1805927;79;20082;-70
2021/11/20 12:26:40;;;;;;;;;;;;;;;10.65;69.20;98460.57;1794758;79;20463;-69
2021/11/20 12:29:44;;;;;;;;;;;;;;;10.75;69.18;98482.50;1779154;79;20235;-69
2021/11/20 12:32:26;;;;;;;;;;;;;;;10.46;70.40;98471.16;1790487;78;20995;-69
2021/11/20 12:35:24;;;;;;;;;;;;;;;10.47;70.13;98479.49;1801593;79;20377;-68
2021/11/20 12:38:15;;;;;;;;;;;;;;;10.65;70.60;98480.15;1802047;79;20142;-69
2021/11/20 12:41:01;;;;;;;;;;;;;;;10.37;70.54;98483.05;1763998;79;20402;-68
2021/11/20 12:43:51;;;;;;;;;;;;;;;10.13;71.29;98487.45;1789774;78;20088;-71
2021/11/20 12:50:24;;;;;;;;;;;;;;;10.44;69.14;98498.29;1716992;82;20095;-70
2021/11/20 12:53:20;;;;;;;;;;;;;;;10.32;66.37;98481.73;1719506;83;20098;-70
2021/11/20 12:56:12;;;;;;;;;;;;;;;10.11;68.71;98498.98;1714316;82;20411;-70
2021/11/20 12:58:42;;;;;;;;;;;;;;;10.34;70.50;98521.16;1710705;82;20106;-70
2021/11/20 13:01:11;;;;;;;;;;;;;;;10.47;69.86;98527.78;1714547;83;21127;-69
2021/11/20 13:03:43;;;;;;;;;;;;;;;10.41;70.22;98518.15;1706012;82;20087;-72
2021/11/20 13:06:25;;;;;;;;;;;;;;;10.24;67.42;98521.16;1710077;82;20131;-69
2021/11/20 13:08:58;;;;;;;;;;;;;;;10.05;68.89;98525.03;1715404;83;20383;-69
2021/11/20 13:11:31;;;;;;;;;;;;;;;9.83;69.35;98525.39;1705595;82;20234;-70
2021/11/20 13:14:08;;;;;;;;;;;;;;;9.90;69.31;98516.52;1711969;83;21734;-69
2021/11/20 13:17:08;;;;;;;;;;;;;;;9.98;70.43;98543.28;1714706;83;20142;-71
2021/11/20 13:19:41;;;;;;;;;;;;;;;9.88;70.50;98532.86;1705162;83;20201;-70
2021/11/20 13:22:15;;;;;;;;;;;;;;;9.88;71.12;98538.77;1718067;83;20170;-69
2021/11/20 13:24:46;;;;;;;;;;;;;;;9.56;71.75;98537.25;1704108;83;20108;-70
2021/11/20 13:27:16;;;;;;;;;;;;;;;9.38;72.57;98542.66;1740010;79;21727;-71
2021/11/20 13:29:43;;;;;;;;;;;;;;;9.31;72.57;98545.31;1793598;79;20515;-69
2021/11/20 13:32:13;;;;;;;;;;;;;;;9.34;73.99;98555.51;1796585;78;20447;-70
2021/11/20 13:34:51;;;;;;;;;;;;;;;9.32;73.19;98557.11;1795721;79;20491;-70
2021/11/20 13:37:17;;;;;;;;;;;;;;;9.30;73.62;98573.97;1801773;78;20167;-70
2021/11/20 13:39:44;;;;;;;;;;;;;;;9.36;72.58;98565.42;1790807;79;21700;-69
2021/11/20 13:42:11;;;;;;;;;;;;;;;9.32;72.97;98574.52;1802270;78;20141;-70
2021/11/20 13:44:38;;;;;;;;;;;;;;;9.26;73.74;98561.39;1789794;79;20250;-71
2021/11/20 13:47:07;;;;;;;;;;;;;;;9.08;74.46;98566.22;1809294;78;20091;-70
2021/11/20 13:49:35;;;;;;;;;;;;;;;8.93;74.80;98577.72;1805213;79;20157;-70
2021/11/20 13:52:13;;;;;;;;;;;;;;;8.87;74.06;98572.11;1816851;78;21100;-70
2021/11/20 13:54:40;;;;;;;;;;;;;;;8.82;75.42;98588.16;1804454;78;20102;-69
2021/11/20 13:57:14;;;;;;;;;;;;;;;8.69;75.61;98573.95;1797218;79;20164;-69
2021/11/20 13:59:41;;;;;;;;;;;;;;;8.62;74.97;98577.41;1803954;79;20083;-70
2021/11/20 14:02:29;;;;;;;;;;;;;;;8.59;74.84;98588.11;1795647;79;20150;-68
2021/11/20 14:04:56;;;;;;;;;;;;;;;8.56;75.85;98606.03;1770962;80;21309;-70
2021/11/20 14:07:28;;;;;;;;;;;;;;;8.43;77.54;98599.81;1737503;80;20398;-69
2021/11/20 14:09:54;;;;;;;;;;;;;;;8.27;77.77;98604.30;1769743;80;20231;-69
2021/11/20 14:12:34;;;;;;;;;;;;;;;8.25;76.78;98604.55;1774176;80;20139;-70
2021/11/20 14:15:09;;;;;;;;;;;;;;;8.26;77.18;98625.42;1635729;86;20459;-70
2021/11/20 14:17:49;;;;;;;;;;;;;;;8.24;76.71;98593.59;1640162;86;20948;-69
2021/11/20 14:20:19;;;;;;;;;;;;;;;8.24;77.44;98631.56;1627210;87;20119;-69
2021/11/20 14:22:49;;;;;;;;;;;;;;;8.14;78.97;98633.65;1641514;86;20177;-69
2021/11/20 14:25:56;;;;;;;;;;;;;;;7.98;80.26;98638.09;1638452;87;20131;-70